Time;durP1;ratioP1;P1;durP2;ratioP2;P2;SDS_P1;SDS_P2;PMS_P1;PMS_P2;Temp;Humidity;BMP_temperature;BMP_pressure;BME280_temperature;BME280_humidity;BME280_pressure;Samples;Min_cycle;Max_cycle;Signal;HPM_P1;HPM_P2
2022/01/09 00:00:40;;;;;;;2.87;2.10;;;;;;;4.31;91.65;98683.84;5139235;27;20110;-91
2022/01/09 00:03:06;;;;;;;3.73;2.00;;;;;;;4.31;92.06;98684.66;5137013;27;20019;-91
2022/01/09 00:05:32;;;;;;;3.38;2.00;;;;;;;4.31;91.75;98697.53;5143267;27;20023;-92
2022/01/09 00:07:58;;;;;;;2.65;1.77;;;;;;;4.33;92.09;98698.31;5141524;27;20023;-91
2022/01/09 00:10:23;;;;;;;4.47;1.93;;;;;;;4.33;92.15;98694.94;5141857;27;20078;-91
2022/01/09 00:12:49;;;;;;;3.47;1.73;;;;;;;4.34;91.81;98714.63;5142262;27;20031;-92
2022/01/09 00:15:15;;;;;;;2.30;1.80;;;;;;;4.35;91.91;98706.84;5144403;27;20109;-91
2022/01/09 00:17:40;;;;;;;1.98;1.55;;;;;;;4.37;92.04;98710.22;5138760;27;20066;-91
2022/01/09 00:20:07;;;;;;;4.32;1.55;;;;;;;4.39;91.94;98723.00;5136350;27;20410;-91
2022/01/09 00:22:45;;;;;;;7.35;2.20;;;;;;;4.40;92.29;98735.84;5138963;27;20080;-90
2022/01/09 00:25:11;;;;;;;2.90;1.80;;;;;;;4.43;91.89;98744.38;5139291;27;20639;-91
2022/01/09 00:27:37;;;;;;;2.90;1.83;;;;;;;4.45;92.36;98760.56;5140736;27;20469;-89
2022/01/09 00:30:04;;;;;;;3.50;2.20;;;;;;;4.46;91.87;98757.97;5140504;27;20015;-90
2022/01/09 00:32:29;;;;;;;3.53;2.40;;;;;;;4.51;91.93;98778.41;5138187;27;20023;-90
2022/01/09 00:34:55;;;;;;;3.15;2.33;;;;;;;4.52;91.95;98780.94;5142002;27;20114;-91
2022/01/09 00:37:20;;;;;;;3.65;2.42;;;;;;;4.53;91.68;98797.22;5138490;27;20530;-90
2022/01/09 00:39:45;;;;;;;4.53;2.97;;;;;;;4.56;91.65;98794.53;5132796;27;20045;-91
2022/01/09 00:42:11;;;;;;;4.90;3.08;;;;;;;4.54;91.56;98798.91;5130652;27;20738;-90
2022/01/09 00:44:36;;;;;;;4.18;2.80;;;;;;;4.64;91.27;98820.84;5132313;27;20031;-91
2022/01/09 00:47:01;;;;;;;6.53;2.90;;;;;;;4.65;90.73;98819.97;5138296;27;20059;-90
2022/01/09 00:49:27;;;;;;;5.13;1.67;;;;;;;4.73;89.78;98814.56;5135740;27;20052;-92
2022/01/09 00:51:53;;;;;;;3.70;1.70;;;;;;;4.69;89.31;98828.44;5140975;27;20066;-92
2022/01/09 00:54:18;;;;;;;7.65;1.92;;;;;;;4.64;89.72;98833.75;5138285;27;20047;-92
2022/01/09 00:56:44;;;;;;;4.27;1.80;;;;;;;4.55;90.35;98846.94;5132758;27;20019;-92
2022/01/09 00:59:09;;;;;;;7.70;1.90;;;;;;;4.50;90.39;98853.97;5137412;27;20022;-91
2022/01/09 01:01:34;;;;;;;7.05;1.80;;;;;;;4.53;90.16;98853.88;5140649;27;20031;-90
2022/01/09 01:04:00;;;;;;;7.57;1.43;;;;;;;4.51;90.36;98871.09;5137947;27;20048;-92
2022/01/09 01:06:25;;;;;;;11.75;1.92;;;;;;;4.54;89.92;98869.25;5138692;27;20046;-93
2022/01/09 01:08:50;;;;;;;11.90;1.90;;;;;;;4.51;89.78;98876.25;5141641;27;20027;-92
2022/01/09 01:11:15;;;;;;;15.82;2.30;;;;;;;4.48;89.79;98900.38;5137052;27;20019;-91
2022/01/09 01:13:41;;;;;;;14.30;2.63;;;;;;;4.40;90.22;98926.38;5139477;27;20087;-93
2022/01/09 01:16:06;;;;;;;17.17;2.93;;;;;;;4.49;88.84;98893.47;5142402;27;20385;-93
2022/01/09 01:18:31;;;;;;;16.10;2.20;;;;;;;4.46;89.33;98924.47;5144284;27;20076;-93
2022/01/09 01:20:57;;;;;;;22.83;3.33;;;;;;;4.37;88.80;98913.59;5144389;27;20041;-93
2022/01/09 01:23:22;;;;;;;12.10;2.10;;;;;;;4.37;88.54;98916.16;5139817;27;20030;-95
2022/01/09 01:25:51;;;;;;;15.07;2.70;;;;;;;4.38;88.18;98925.56;5141513;27;20127;-92
2022/01/09 01:28:17;;;;;;;17.10;2.37;;;;;;;4.36;88.57;98932.50;5143727;27;20019;-90
2022/01/09 01:30:43;;;;;;;18.20;2.50;;;;;;;4.36;88.63;98945.38;5144483;27;20429;-92
2022/01/09 01:33:08;;;;;;;16.60;2.80;;;;;;;4.41;88.82;98947.78;5145607;27;20030;-93
2022/01/09 01:35:33;;;;;;;19.93;3.00;;;;;;;4.37;89.15;98931.59;5145138;27;20022;-93
2022/01/09 01:37:59;;;;;;;20.23;2.70;;;;;;;4.34;89.09;98952.28;5143009;27;20022;-92
2022/01/09 01:40:24;;;;;;;24.43;3.40;;;;;;;4.33;89.60;98960.06;5142786;27;20035;-91
2022/01/09 01:42:49;;;;;;;20.43;2.70;;;;;;;4.32;89.96;98958.38;5142866;27;20027;-92
2022/01/09 01:45:15;;;;;;;22.23;3.07;;;;;;;4.31;90.26;98972.97;5145175;27;20031;-91
2022/01/09 01:47:40;;;;;;;21.80;3.33;;;;;;;4.30;90.16;98961.00;5141177;27;20026;-92
2022/01/09 01:50:08;;;;;;;23.83;3.63;;;;;;;4.31;90.29;98967.81;5143909;27;20128;-92
2022/01/09 01:52:39;;;;;;;30.70;4.87;;;;;;;4.46;89.99;98978.53;5143104;27;20022;-91
2022/01/09 01:55:05;;;;;;;24.93;2.97;;;;;;;4.45;89.75;98984.56;5150897;27;20034;-91
2022/01/09 01:57:32;;;;;;;19.47;2.60;;;;;;;4.45;90.16;98995.72;5144255;27;20277;-92
2022/01/09 01:59:57;;;;;;;22.50;2.60;;;;;;;4.49;89.67;99001.63;5145417;27;20105;-95
2022/01/09 02:02:25;;;;;;;19.20;3.07;;;;;;;4.52;89.68;99001.53;5143559;27;20418;-90
2022/01/09 02:04:51;;;;;;;31.47;3.70;;;;;;;4.54;89.66;99010.06;5143949;27;20023;-91
2022/01/09 02:07:16;;;;;;;26.00;3.33;;;;;;;4.58;89.33;99026.25;5140986;27;20488;-92
2022/01/09 02:09:43;;;;;;;25.90;3.55;;;;;;;4.65;89.01;99022.63;5145489;27;20027;-91
2022/01/09 02:12:08;;;;;;;21.43;3.07;;;;;;;4.61;89.09;99024.41;5141976;27;20029;-93
2022/01/09 02:14:35;;;;;;;24.37;3.37;;;;;;;4.74;88.17;99037.78;5140582;27;20031;-91
2022/01/09 02:17:00;;;;;;;20.05;3.60;;;;;;;4.69;87.97;99037.91;5142773;27;20454;-92
2022/01/09 02:19:27;;;;;;;23.20;2.63;;;;;;;4.66;88.44;99056.03;5139722;27;20059;-92
2022/01/09 02:21:54;;;;;;;27.23;3.30;;;;;;;4.73;88.17;99053.28;5142511;27;20023;-92
2022/01/09 02:24:22;;;;;;;22.70;3.30;;;;;;;4.64;88.94;99054.41;5143162;27;20048;-93
2022/01/09 02:26:49;;;;;;;26.23;3.63;;;;;;;4.68;88.63;99064.56;5143410;27;20034;-92
2022/01/09 02:29:14;;;;;;;28.52;4.18;;;;;;;4.68;88.88;99074.88;5141634;27;20057;-92
2022/01/09 02:31:39;;;;;;;26.70;3.17;;;;;;;4.75;88.50;99074.69;5143863;27;20389;-93
2022/01/09 02:34:04;;;;;;;24.77;3.63;;;;;;;4.70;88.36;99088.56;5143537;27;20031;-92
2022/01/09 02:36:30;;;;;;;24.60;3.57;;;;;;;4.75;88.72;99095.31;5143912;27;20035;-92
2022/01/09 02:38:55;;;;;;;32.53;3.43;;;;;;;4.73;88.33;99097.91;5142394;27;20023;-93
2022/01/09 02:41:20;;;;;;;29.73;4.37;;;;;;;4.70;88.82;99088.56;5142139;27;20085;-91
2022/01/09 02:43:47;;;;;;;28.17;3.93;;;;;;;4.74;87.92;99124.53;5140357;27;20063;-93
2022/01/09 02:46:27;;;;;;;26.83;3.93;;;;;;;4.77;87.46;99104.66;5142225;27;20026;-92
2022/01/09 02:48:52;;;;;;;27.13;4.53;;;;;;;4.79;87.53;99102.03;5140772;27;20063;-91
2022/01/09 02:51:18;;;;;;;25.23;3.60;;;;;;;4.75;87.74;99126.22;5143777;27;20023;-91
2022/01/09 02:53:47;;;;;;;25.50;3.80;;;;;;;4.81;87.13;99139.75;5141505;27;20033;-92
2022/01/09 02:56:14;;;;;;;17.47;2.97;;;;;;;4.79;87.06;99150.97;5142203;27;20030;-92
2022/01/09 02:58:41;;;;;;;27.10;3.37;;;;;;;4.79;86.63;99144.13;5141732;27;20079;-93
2022/01/09 03:01:09;;;;;;;17.30;2.88;;;;;;;4.79;87.13;99144.13;5143469;27;20038;-91
2022/01/09 03:03:34;;;;;;;17.87;3.57;;;;;;;4.80;86.33;99162.97;5141757;27;20046;-93
2022/01/09 03:06:00;;;;;;;26.23;3.90;;;;;;;4.82;86.26;99163.78;5142248;27;20501;-94
2022/01/09 03:08:25;;;;;;;23.87;3.10;;;;;;;4.76;86.66;99156.25;5142330;27;20035;-93
2022/01/09 03:10:51;;;;;;;15.30;3.80;;;;;;;4.82;85.75;99195.56;5143451;27;20034;-93
2022/01/09 03:13:16;;;;;;;22.10;3.70;;;;;;;4.79;86.13;99163.88;5144651;27;20054;-93
2022/01/09 03:15:41;;;;;;;21.40;3.40;;;;;;;4.80;85.64;99181.00;5140615;27;20054;-92
2022/01/09 03:18:07;;;;;;;25.90;3.47;;;;;;;4.78;85.77;99187.97;5143620;27;20040;-94
2022/01/09 03:20:32;;;;;;;26.73;3.20;;;;;;;4.75;85.76;99194.03;5141490;27;20029;-94
2022/01/09 03:22:58;;;;;;;21.55;3.83;;;;;;;4.82;85.19;99194.69;5140537;27;20033;-92
2022/01/09 03:25:26;;;;;;;20.67;3.43;;;;;;;4.79;85.37;99194.78;5143681;27;20043;-93
2022/01/09 03:27:52;;;;;;;22.20;2.80;;;;;;;4.80;84.98;99217.09;5144420;27;20038;-92
2022/01/09 03:30:20;;;;;;;15.03;2.30;;;;;;;4.77;84.91;99218.03;5144155;27;20419;-93
2022/01/09 03:32:46;;;;;;;21.93;2.83;;;;;;;4.78;84.33;99230.03;5142265;27;20111;-93
2022/01/09 03:35:14;;;;;;;19.63;2.70;;;;;;;4.78;84.15;99222.28;5139731;27;20024;-94
2022/01/09 03:37:41;;;;;;;16.93;3.13;;;;;;;4.75;84.90;99224.13;5140296;27;20031;-94
2022/01/09 03:40:09;;;;;;;23.13;2.70;;;;;;;4.74;84.43;99240.47;5140220;27;20027;-93
2022/01/09 03:42:36;;;;;;;20.13;2.70;;;;;;;4.75;84.38;99250.72;5142904;27;20031;-93
2022/01/09 03:45:10;;;;;;;13.90;2.40;;;;;;;4.82;84.20;99256.53;5138341;27;20098;-93
2022/01/09 03:47:36;;;;;;;17.93;2.50;;;;;;;4.81;83.64;99262.56;5142788;27;20019;-92
2022/01/09 03:50:07;;;;;;;16.50;2.73;;;;;;;4.78;83.32;99270.41;5137946;27;20489;-91
2022/01/09 03:52:36;;;;;;;19.55;2.45;;;;;;;4.78;83.99;99271.25;5143537;27;20029;-94
2022/01/09 03:55:02;;;;;;;14.50;2.80;;;;;;;4.80;83.18;99279.78;5143909;27;20098;-95
2022/01/09 03:57:27;;;;;;;15.03;2.23;;;;;;;4.70;83.51;99279.19;5143288;27;20523;-92
2022/01/09 03:59:53;;;;;;;13.18;2.25;;;;;;;4.74;82.72;99290.25;5143401;27;20035;-94
2022/01/09 04:02:20;;;;;;;19.83;2.43;;;;;;;4.73;82.57;99288.53;5149985;27;20083;-95
2022/01/09 04:04:53;;;;;;;19.73;2.40;;;;;;;4.80;82.51;99317.56;5148999;27;20470;-94
2022/01/09 04:07:19;;;;;;;15.77;2.23;;;;;;;4.73;82.78;99303.16;5147454;27;20041;-89
2022/01/09 04:09:45;;;;;;;20.87;2.87;;;;;;;4.67;82.82;99315.31;5162095;27;20050;-92
2022/01/09 04:12:31;;;;;;;13.63;2.40;;;;;;;4.62;83.37;99337.75;5153771;27;20023;-94
2022/01/09 04:14:59;;;;;;;14.23;2.00;;;;;;;4.59;83.31;99326.72;5141730;27;20027;-94
2022/01/09 04:17:37;;;;;;;12.17;2.10;;;;;;;4.64;82.61;99325.69;5145732;27;20474;-92
2022/01/09 04:20:06;;;;;;;12.80;2.30;;;;;;;4.61;82.40;99346.38;5145642;27;20071;-91
2022/01/09 04:22:31;;;;;;;16.60;2.27;;;;;;;4.59;82.42;99344.75;5145996;27;20082;-94
2022/01/09 04:24:57;;;;;;;12.83;1.93;;;;;;;4.54;82.61;99360.31;5141905;27;20456;-91
2022/01/09 04:27:22;;;;;;;12.93;2.00;;;;;;;4.59;81.36;99357.63;5148372;27;20023;-92
2022/01/09 04:29:47;;;;;;;13.13;1.80;;;;;;;4.61;81.58;99371.31;5143436;27;20035;-93
2022/01/09 04:32:17;;;;;;;18.17;2.23;;;;;;;4.56;81.31;99368.84;5143730;27;20054;-94
2022/01/09 04:34:42;;;;;;;21.80;2.27;;;;;;;4.53;80.87;99379.22;5147428;27;20025;-94
2022/01/09 04:37:08;;;;;;;12.50;1.87;;;;;;;4.54;81.21;99379.16;5146458;27;20018;-93
2022/01/09 04:39:33;;;;;;;11.43;1.60;;;;;;;4.48;81.43;99383.63;5146633;27;20026;-94
2022/01/09 04:41:59;;;;;;;14.73;1.80;;;;;;;4.47;81.07;99385.38;5146453;27;20019;-93
2022/01/09 04:44:24;;;;;;;12.60;1.70;;;;;;;4.46;80.72;99390.53;5144658;27;20022;-92
2022/01/09 04:47:02;;;;;;;12.83;1.63;;;;;;;4.42;81.73;99406.97;5143813;27;20146;-94
2022/01/09 04:49:35;;;;;;;11.00;1.97;;;;;;;4.39;82.33;99413.88;5144201;27;20030;-92
2022/01/09 04:52:02;;;;;;;15.13;1.90;;;;;;;4.38;81.70;99419.06;5145501;27;20019;-93
2022/01/09 04:54:28;;;;;;;11.27;1.73;;;;;;;4.38;81.44;99424.19;5145929;27;20030;-95
2022/01/09 04:56:53;;;;;;;14.27;2.00;;;;;;;4.33;81.15;99428.63;5144239;27;20022;-93
2022/01/09 04:59:19;;;;;;;11.57;1.67;;;;;;;4.28;81.40;99436.44;5144163;27;20023;-93
2022/01/09 05:01:44;;;;;;;9.80;1.77;;;;;;;4.20;81.40;99443.50;5143869;27;20501;-94
2022/01/09 05:04:09;;;;;;;10.57;1.93;;;;;;;4.15;81.98;99445.31;5145414;27;20030;-92
2022/01/09 05:06:35;;;;;;;9.27;1.60;;;;;;;4.14;82.46;99453.91;5144462;27;20023;-92
2022/01/09 05:09:00;;;;;;;10.77;1.80;;;;;;;4.11;82.06;99462.56;5143476;27;20482;-93
2022/01/09 05:11:25;;;;;;;10.77;1.73;;;;;;;4.08;81.95;99468.63;5144986;27;20053;-92
2022/01/09 05:13:51;;;;;;;11.63;1.87;;;;;;;4.09;81.98;99465.19;5137178;27;20409;-92
2022/01/09 05:16:16;;;;;;;10.97;2.17;;;;;;;4.08;81.52;99476.34;5140818;27;20018;-92
2022/01/09 05:18:52;;;;;;;13.70;1.80;;;;;;;4.04;81.98;99473.84;5141022;27;20046;-94
2022/01/09 05:21:17;;;;;;;11.47;1.97;;;;;;;4.02;81.88;99479.03;5144604;27;20094;-92
2022/01/09 05:23:43;;;;;;;7.57;1.90;;;;;;;3.98;82.31;99495.41;5142901;27;20411;-92
2022/01/09 05:26:08;;;;;;;9.47;1.60;;;;;;;3.99;81.68;99499.69;5144918;27;20108;-92
2022/01/09 05:28:34;;;;;;;11.77;1.87;;;;;;;3.97;82.17;99508.34;5145038;27;20031;-93
2022/01/09 05:30:59;;;;;;;11.73;2.67;;;;;;;3.94;82.03;99525.53;5142295;27;20023;-91
2022/01/09 05:33:24;;;;;;;15.07;1.53;;;;;;;3.91;82.22;99523.00;5143390;27;20474;-93
2022/01/09 05:35:50;;;;;;;10.53;1.90;;;;;;;3.91;82.08;99529.88;5144368;27;20030;-93
2022/01/09 05:38:18;;;;;;;10.57;1.60;;;;;;;3.87;82.63;99533.38;5146298;27;20025;-92
2022/01/09 05:40:44;;;;;;;8.93;1.87;;;;;;;3.87;82.08;99525.69;5142951;27;20369;-93
2022/01/09 05:43:11;;;;;;;9.67;2.10;;;;;;;3.87;82.18;99538.53;5142493;27;20015;-93
2022/01/09 05:45:36;;;;;;;15.40;1.90;;;;;;;3.87;81.77;99538.53;5143964;27;20030;-94
2022/01/09 05:48:02;;;;;;;15.37;1.63;;;;;;;3.87;81.84;99541.94;5143737;27;20015;-94
2022/01/09 05:50:28;;;;;;;17.40;1.97;;;;;;;3.84;81.92;99542.03;5144490;27;20059;-92
2022/01/09 05:52:55;;;;;;;17.37;2.30;;;;;;;3.82;81.88;99550.63;5139115;27;20453;-94
2022/01/09 05:55:21;;;;;;;11.03;1.70;;;;;;;3.79;82.11;99548.97;5144675;27;20134;-91
2022/01/09 05:57:46;;;;;;;11.70;1.80;;;;;;;3.76;81.73;99560.16;5143400;27;20047;-92
2022/01/09 06:00:12;;;;;;;9.50;1.67;;;;;;;3.76;82.05;99561.88;5145277;27;20022;-95
2022/01/09 06:02:38;;;;;;;10.60;1.63;;;;;;;3.80;81.38;99568.69;5143560;27;20018;-94
2022/01/09 06:05:03;;;;;;;11.50;1.47;;;;;;;3.82;81.97;99571.22;5145023;27;20445;-93
2022/01/09 06:07:29;;;;;;;10.43;1.63;;;;;;;3.78;82.07;99573.84;5142974;27;20042;-92
2022/01/09 06:09:54;;;;;;;11.17;1.90;;;;;;;3.82;81.45;99576.34;5143302;27;20026;-94
2022/01/09 06:12:19;;;;;;;8.97;1.60;;;;;;;3.82;81.56;99584.06;5143688;27;20027;-93
2022/01/09 06:14:45;;;;;;;8.70;1.43;;;;;;;3.76;81.71;99575.59;5144052;27;20110;-93
2022/01/09 06:17:10;;;;;;;14.13;2.17;;;;;;;3.73;82.03;99578.25;5141377;27;20470;-92
2022/01/09 06:19:35;;;;;;;9.40;2.10;;;;;;;3.71;82.06;99584.25;5144977;27;20029;-93
2022/01/09 06:22:01;;;;;;;15.37;1.83;;;;;;;3.70;82.31;99585.13;5143079;27;20082;-93
2022/01/09 06:24:26;;;;;;;14.80;2.33;;;;;;;3.66;82.32;99597.22;5141604;27;20023;-92
2022/01/09 06:26:52;;;;;;;11.20;2.07;;;;;;;3.67;82.56;99596.34;5142493;27;20041;-94
2022/01/09 06:29:19;;;;;;;8.37;1.80;;;;;;;3.68;82.88;99608.31;5142167;27;20023;-94
2022/01/09 06:31:45;;;;;;;11.30;1.77;;;;;;;3.65;82.90;99605.81;5140606;27;20019;-94
2022/01/09 06:34:12;;;;;;;13.77;2.10;;;;;;;3.65;82.84;99608.38;5142404;27;20025;-93
2022/01/09 06:36:37;;;;;;;15.37;2.30;;;;;;;3.63;83.61;99610.13;5142757;27;20427;-93
2022/01/09 06:39:03;;;;;;;9.17;1.87;;;;;;;3.63;83.66;99607.53;5139173;27;20034;-93
2022/01/09 06:41:28;;;;;;;11.80;2.57;;;;;;;3.64;83.26;99616.97;5139669;27;20022;-94
2022/01/09 06:43:53;;;;;;;11.87;2.10;;;;;;;3.64;83.53;99619.53;5141073;27;20029;-92
2022/01/09 06:46:19;;;;;;;12.43;1.93;;;;;;;3.64;83.61;99624.69;5142565;27;20019;-93
2022/01/09 06:48:44;;;;;;;16.20;2.00;;;;;;;3.68;83.54;99630.59;5137777;27;20483;-93
2022/01/09 06:51:10;;;;;;;13.70;1.90;;;;;;;3.68;83.16;99639.19;5143147;27;20015;-94
2022/01/09 06:53:36;;;;;;;13.00;1.90;;;;;;;3.71;83.54;99652.00;5142362;27;20025;-93
2022/01/09 06:56:03;;;;;;;8.60;1.80;;;;;;;3.77;82.41;99657.03;5142264;27;20023;-95
2022/01/09 06:58:39;;;;;;;12.30;2.00;;;;;;;3.82;82.11;99663.81;5140505;27;20108;-93
2022/01/09 07:01:05;;;;;;;8.60;1.63;;;;;;;3.76;83.05;99665.63;5138273;27;20022;-92
2022/01/09 07:03:30;;;;;;;8.50;2.23;;;;;;;3.77;83.67;99671.63;5143409;27;20032;-94
2022/01/09 07:05:56;;;;;;;8.10;1.87;;;;;;;3.77;83.42;99677.59;5142269;27;20071;-92
2022/01/09 07:08:21;;;;;;;10.60;2.03;;;;;;;3.70;83.71;99673.47;5143264;27;20462;-92
2022/01/09 07:10:46;;;;;;;8.80;1.40;;;;;;;3.67;83.39;99677.81;5140925;27;20027;-92
2022/01/09 07:13:12;;;;;;;8.87;1.97;;;;;;;3.64;83.88;99694.13;5142485;27;20054;-92
2022/01/09 07:15:37;;;;;;;5.83;1.50;;;;;;;3.60;84.07;99689.88;5145041;27;20021;-95
2022/01/09 07:18:02;;;;;;;8.00;1.97;;;;;;;3.57;84.69;99697.69;5138736;27;20452;-92
2022/01/09 07:20:28;;;;;;;10.43;2.00;;;;;;;3.55;84.22;99702.81;5137102;27;20023;-94
2022/01/09 07:22:53;;;;;;;12.33;2.00;;;;;;;3.57;84.96;99706.22;5144608;27;20076;-92
2022/01/09 07:25:18;;;;;;;12.30;2.30;;;;;;;3.59;84.88;99699.34;5140846;27;20042;-93
2022/01/09 07:27:44;;;;;;;11.50;1.83;;;;;;;3.58;85.14;99699.38;5142077;27;20031;-93
2022/01/09 07:30:10;;;;;;;6.33;1.60;;;;;;;3.56;84.67;99704.53;5141860;27;20454;-93
2022/01/09 07:32:36;;;;;;;12.07;1.73;;;;;;;3.56;85.23;99709.66;5138516;27;20055;-92
2022/01/09 07:35:02;;;;;;;11.63;1.67;;;;;;;3.57;85.47;99710.53;5142933;27;20019;-93
2022/01/09 07:37:30;;;;;;;9.30;1.70;;;;;;;3.59;85.34;99719.91;5145736;27;20499;-93
2022/01/09 07:39:56;;;;;;;12.57;2.07;;;;;;;3.59;84.99;99713.91;5152241;27;20026;-93
2022/01/09 07:42:21;;;;;;;10.60;1.80;;;;;;;3.60;85.31;99720.75;5152397;27;20026;-94
2022/01/09 07:44:47;;;;;;;8.07;1.67;;;;;;;3.62;85.47;99724.16;5145813;27;20375;-92
2022/01/09 07:47:12;;;;;;;10.77;1.90;;;;;;;3.64;85.37;99735.28;5143329;27;20055;-94
2022/01/09 07:49:37;;;;;;;12.33;1.60;;;;;;;3.65;84.99;99731.81;5143697;27;20014;-92
2022/01/09 07:52:03;;;;;;;14.03;1.67;;;;;;;3.67;85.32;99731.81;5143173;27;20029;-92
2022/01/09 07:54:28;;;;;;;11.87;2.13;;;;;;;3.68;85.13;99747.22;5145488;27;20504;-93
2022/01/09 07:56:54;;;;;;;13.70;1.97;;;;;;;3.68;84.86;99744.66;5145272;27;20392;-93
2022/01/09 07:59:19;;;;;;;12.63;1.90;;;;;;;3.68;85.24;99741.22;5145591;27;20029;-93
2022/01/09 08:01:44;;;;;;;12.23;1.87;;;;;;;3.65;84.73;99749.84;5146620;27;20071;-93
2022/01/09 08:04:10;;;;;;;12.10;1.57;;;;;;;3.64;85.15;99749.00;5147929;27;20030;-92
2022/01/09 08:06:36;;;;;;;10.73;2.20;;;;;;;3.64;85.01;99759.28;5144096;27;20072;-94
2022/01/09 08:09:01;;;;;;;8.17;1.47;;;;;;;3.65;85.03;99772.97;5144768;27;20155;-93
2022/01/09 08:11:26;;;;;;;8.87;2.20;;;;;;;3.65;84.95;99772.97;5144780;27;20382;-94
2022/01/09 08:13:52;;;;;;;9.57;1.80;;;;;;;3.63;85.07;99770.44;5145431;27;20051;-94
2022/01/09 08:16:17;;;;;;;14.30;2.13;;;;;;;3.62;84.94;99784.19;5141557;27;20091;-93
2022/01/09 08:18:42;;;;;;;12.17;1.60;;;;;;;3.59;84.83;99779.06;5145476;27;20541;-92
2022/01/09 08:21:08;;;;;;;11.13;1.90;;;;;;;3.58;84.84;99786.81;5142500;27;20037;-93
2022/01/09 08:23:33;;;;;;;10.23;1.70;;;;;;;3.56;84.75;99801.41;5139724;27;21648;-93
2022/01/09 08:25:58;;;;;;;13.40;2.37;;;;;;;3.54;84.64;99795.44;5145520;27;20122;-92
2022/01/09 08:28:24;;;;;;;7.77;1.57;;;;;;;3.51;84.68;99798.88;5143565;27;20046;-92
2022/01/09 08:30:49;;;;;;;10.33;1.83;;;;;;;3.49;84.60;99806.63;5146512;27;20034;-94
2022/01/09 08:33:14;;;;;;;12.03;1.67;;;;;;;3.51;84.34;99810.91;5142678;27;20069;-91
2022/01/09 08:35:40;;;;;;;12.03;2.03;;;;;;;3.51;84.85;99809.16;5142758;27;20022;-92
2022/01/09 08:38:05;;;;;;;11.10;1.80;;;;;;;3.53;84.63;99811.75;5143882;27;20042;-93
2022/01/09 08:40:30;;;;;;;17.73;2.40;;;;;;;3.53;84.78;99812.56;5142976;27;20018;-92
2022/01/09 08:42:56;;;;;;;8.70;1.90;;;;;;;3.54;84.32;99813.44;5140539;27;20023;-91
2022/01/09 08:45:23;;;;;;;12.43;2.63;;;;;;;3.54;84.41;99818.59;5137951;27;20111;-93
2022/01/09 08:47:49;;;;;;;10.10;1.77;;;;;;;3.57;84.92;99819.38;5139729;27;20065;-93
2022/01/09 08:50:19;;;;;;;10.20;1.63;;;;;;;3.61;84.93;99823.63;5138704;27;20047;-93
2022/01/09 08:52:47;;;;;;;10.30;1.50;;;;;;;3.65;84.72;99827.00;5142900;27;20582;-93
2022/01/09 08:55:13;;;;;;;13.30;1.87;;;;;;;3.67;84.69;99829.56;5141269;27;20393;-92
2022/01/09 08:57:39;;;;;;;15.47;2.60;;;;;;;3.69;84.44;99832.94;5143048;27;20022;-92
2022/01/09 09:00:05;;;;;;;9.60;1.70;;;;;;;3.71;83.99;99841.50;5142970;27;20027;-92
2022/01/09 09:02:30;;;;;;;12.80;1.70;;;;;;;3.72;84.27;99838.91;5143798;27;20034;-92
2022/01/09 09:04:56;;;;;;;11.00;2.07;;;;;;;3.72;84.20;99844.06;5145168;27;20023;-92
2022/01/09 09:07:24;;;;;;;7.50;1.53;;;;;;;3.71;83.82;99857.78;5145525;27;20034;-93
2022/01/09 09:09:51;;;;;;;8.30;1.43;;;;;;;3.67;83.80;99850.97;5143088;27;20431;-91
2022/01/09 09:12:17;;;;;;;7.10;1.40;;;;;;;3.67;83.90;99858.69;5140318;27;20513;-90
2022/01/09 09:14:43;;;;;;;7.50;1.60;;;;;;;3.71;84.23;99867.22;5142228;27;20072;-92
2022/01/09 09:17:08;;;;;;;7.50;1.67;;;;;;;3.73;84.14;99871.47;5143582;27;20019;-92
2022/01/09 09:19:33;;;;;;;7.57;1.60;;;;;;;3.77;84.41;99878.25;5142533;27;20435;-95
2022/01/09 09:22:02;;;;;;;7.37;1.53;;;;;;;3.78;84.40;99874.81;5144665;27;20034;-94
2022/01/09 09:24:30;;;;;;;6.10;1.70;;;;;;;3.82;84.37;99885.06;5143005;27;20029;-95
2022/01/09 09:26:55;;;;;;;7.87;1.73;;;;;;;3.85;84.17;99885.03;5135851;27;20096;-95
2022/01/09 09:29:21;;;;;;;7.10;1.70;;;;;;;3.89;84.47;99886.72;5142953;27;20052;-94
2022/01/09 09:31:46;;;;;;;12.13;1.87;;;;;;;3.92;84.10;99891.81;5141186;27;20069;-94
2022/01/09 09:34:12;;;;;;;11.87;1.83;;;;;;;3.94;83.76;99895.19;5145299;27;20031;-94
2022/01/09 09:36:38;;;;;;;8.70;1.73;;;;;;;3.95;84.06;99902.03;5149703;27;20014;-93
2022/01/09 09:39:05;;;;;;;9.27;1.50;;;;;;;3.96;83.86;99903.75;5143210;27;20019;-93
2022/01/09 09:41:31;;;;;;;8.33;1.70;;;;;;;3.97;83.67;99899.47;5143355;27;20018;-93
2022/01/09 09:43:57;;;;;;;10.90;1.80;;;;;;;4.00;83.97;99908.00;5143885;27;20023;-94
2022/01/09 09:46:23;;;;;;;11.03;1.60;;;;;;;4.03;83.46;99905.38;5141391;27;20019;-95
2022/01/09 09:48:51;;;;;;;10.73;1.60;;;;;;;4.08;82.81;99911.31;5143617;27;20023;-93
2022/01/09 09:51:16;;;;;;;11.40;1.60;;;;;;;4.13;83.42;99913.81;5138979;27;20035;-94
2022/01/09 09:53:42;;;;;;;11.60;1.70;;;;;;;4.19;83.74;99918.88;5143293;27;20019;-93
2022/01/09 09:56:07;;;;;;;7.90;1.63;;;;;;;4.25;82.86;99918.78;5143342;27;20021;-93
2022/01/09 09:58:33;;;;;;;8.87;1.57;;;;;;;4.30;82.71;99918.72;5138057;27;20401;-95
2022/01/09 10:00:58;;;;;;;11.47;1.53;;;;;;;4.31;82.67;99925.56;5143567;27;20646;-94
2022/01/09 10:03:32;;;;;;;9.03;1.60;;;;;;;4.32;82.97;99922.13;5140690;27;20498;-94
2022/01/09 10:05:58;;;;;;;7.07;1.80;;;;;;;4.33;82.65;99923.81;5134932;27;20381;-94
2022/01/09 10:08:38;;;;;;;8.97;1.90;;;;;;;4.37;82.78;99933.22;5127118;27;20026;-93
2022/01/09 10:11:45;;;;;;;;;;;;;;;;;;;;;
2022/01/09 10:14:13;;;;;;;9.90;2.57;;;;;;;4.43;82.88;99927.13;5131175;27;20724;-94
2022/01/09 10:16:42;;;;;;;10.00;2.00;;;;;;;4.45;82.21;99938.25;5130198;27;20019;-93
2022/01/09 10:19:07;;;;;;;8.07;1.87;;;;;;;4.44;82.25;99936.53;5124844;27;20019;-89
2022/01/09 10:21:32;;;;;;;8.50;1.87;;;;;;;4.43;81.98;99936.56;5125550;27;20122;-88
2022/01/09 10:24:11;;;;;;;12.70;2.10;;;;;;;4.45;81.58;99945.09;5122003;27;20092;-90
2022/01/09 10:26:41;;;;;;;10.33;1.77;;;;;;;4.43;81.32;99945.13;5134215;27;20065;-93
2022/01/09 10:29:10;;;;;;;8.60;1.70;;;;;;;4.47;81.11;99940.78;5136725;27;20062;-94
2022/01/09 10:39:25;;;;;;;10.20;2.03;;;;;;;4.38;82.18;99958.09;5059193;28;20036;-94
2022/01/09 10:41:59;;;;;;;8.50;1.80;;;;;;;4.37;82.11;99961.53;5048316;28;20037;-95
2022/01/09 10:44:35;;;;;;;6.40;1.67;;;;;;;4.39;82.24;99974.38;5031071;28;20029;-91
2022/01/09 10:47:10;;;;;;;12.23;1.83;;;;;;;4.42;82.36;99968.34;5046214;28;20099;-95
2022/01/09 10:49:46;;;;;;;8.77;1.73;;;;;;;4.45;82.22;99973.44;5042731;28;20090;-93
2022/01/09 10:52:25;;;;;;;9.30;1.70;;;;;;;4.45;82.64;99983.75;5031192;28;20025;-95
2022/01/09 10:54:52;;;;;;;7.90;1.60;;;;;;;4.43;82.00;99975.22;5029919;28;20722;-93
2022/01/09 10:57:28;;;;;;;10.43;1.60;;;;;;;4.48;81.89;99973.41;5046721;28;20615;-95
2022/01/09 11:00:10;;;;;;;10.43;1.85;;;;;;;4.50;82.38;99984.53;5028681;28;20017;-93
2022/01/09 11:02:36;;;;;;;13.15;2.10;;;;;;;4.51;82.55;99988.81;5032839;28;20048;-93
2022/01/09 11:05:02;;;;;;;10.83;1.90;;;;;;;4.51;82.95;99984.53;5047350;28;20677;-91
2022/01/09 11:07:27;;;;;;;9.30;1.70;;;;;;;4.55;82.95;99990.47;5045154;28;20052;-93
2022/01/09 11:09:54;;;;;;;6.50;1.50;;;;;;;4.62;82.55;100001.53;5046856;28;20437;-92
2022/01/09 11:13:14;;;;;;;7.55;1.52;;;;;;;4.68;83.10;99991.16;5211254;22;20101;-94
2022/01/09 11:16:32;;;;;;;10.50;1.90;;;;;;;4.67;82.07;99998.00;5068187;28;20040;-93
2022/01/09 11:18:37;;;;;;;9.93;2.60;;;;;;;4.70;83.13;100003.13;5070696;28;20036;-94
2022/01/09 11:21:03;;;;;;;12.33;2.13;;;;;;;4.78;83.69;100002.16;5085859;28;20025;-92
2022/01/09 11:24:00;;;;;;;12.10;2.20;;;;;;;4.90;83.32;100006.25;5068187;28;20020;-92
2022/01/09 11:26:36;;;;;;;15.27;2.10;;;;;;;5.00;83.77;100002.69;5069154;28;20032;-91
2022/01/09 11:29:06;;;;;;;13.17;2.30;;;;;;;5.05;82.60;100012.91;5071323;28;20115;-92
2022/01/09 11:31:46;;;;;;;13.05;2.00;;;;;;;5.09;82.18;100005.09;5070513;28;20024;-92
2022/01/09 11:34:51;;;;;;;8.63;1.75;;;;;;;5.17;82.45;100007.53;5067017;28;20033;-90
2022/01/09 11:37:27;;;;;;;17.90;2.85;;;;;;;5.22;82.68;100007.44;5064756;28;20020;-94
2022/01/09 11:39:52;;;;;;;13.25;2.60;;;;;;;5.31;81.53;100003.00;5067762;28;20571;-92
2022/01/09 11:42:18;;;;;;;17.77;2.33;;;;;;;5.41;81.39;100008.00;5064804;28;20056;-91
2022/01/09 11:44:49;;;;;;;10.23;2.15;;;;;;;5.52;81.14;100011.22;5066947;28;20029;-91